createdAt,value
2022-09-15T00:01:01.416Z,30.12
2022-09-15T00:02:17.424Z,30.50
2022-09-15T00:03:24.931Z,30.57
2022-09-15T00:04:31.857Z,30.68
2022-09-15T00:05:37.688Z,30.67
2022-09-15T00:06:44.689Z,30.71
2022-09-15T00:07:53.248Z,30.82
2022-09-15T00:08:59.936Z,30.83
2022-09-15T00:10:08.072Z,31.09
2022-09-15T00:11:30.728Z,31.35
2022-09-15T00:12:37.495Z,32.22
2022-09-15T00:13:44.581Z,32.68
2022-09-15T00:14:52.025Z,32.92
2022-09-15T00:15:58.422Z,32.84
2022-09-15T00:17:04.770Z,32.92
2022-09-15T00:18:10.753Z,33.06
2022-09-15T00:19:18.763Z,33.19
2022-09-15T00:20:26.132Z,33.34
2022-09-15T00:21:34.442Z,33.53
2022-09-15T00:22:40.949Z,33.30
2022-09-15T00:23:48.514Z,33.16
2022-09-15T00:24:55.508Z,33.15
2022-09-15T00:26:01.502Z,33.24
2022-09-15T00:27:07.732Z,33.50
2022-09-15T00:28:14.951Z,33.62
2022-09-15T00:29:28.099Z,33.74
2022-09-15T00:31:04.184Z,33.89
2022-09-15T00:34:08.665Z,34.11
2022-09-15T00:35:31.200Z,34.04
2022-09-15T00:36:56.332Z,33.89
2022-09-15T00:38:14.232Z,33.80
2022-09-15T00:39:39.061Z,34.11
2022-09-15T00:42:58.643Z,34.28
2022-09-15T00:44:31.264Z,34.39
2022-09-15T00:45:39.149Z,34.61
2022-09-15T00:47:09.383Z,34.96
2022-09-15T00:48:21.795Z,35.27
2022-09-15T00:49:33.403Z,35.55
2022-09-15T00:50:39.908Z,35.50
2022-09-15T00:52:21.653Z,35.46
2022-09-15T00:53:28.339Z,35.89
2022-09-15T00:55:22.519Z,36.03
2022-09-15T00:56:31.879Z,36.22
2022-09-15T00:58:05.306Z,36.19
2022-09-15T00:59:21.409Z,36.49
2022-09-15T01:00:29.705Z,36.95
2022-09-15T01:01:37.829Z,37.25
2022-09-15T01:02:46.528Z,37.38
2022-09-15T01:03:53.722Z,37.61
2022-09-15T01:05:00.104Z,37.69
2022-09-15T01:06:17.662Z,37.60
2022-09-15T01:07:31.980Z,37.75
2022-09-15T01:09:01.494Z,37.87
2022-09-15T01:12:19.259Z,38.93
2022-09-15T01:13:28.432Z,39.27
2022-09-15T01:14:39.818Z,39.81
2022-09-15T01:16:18.155Z,40.25
2022-09-15T01:17:59.129Z,41.17
2022-09-15T01:19:28.246Z,41.88
2022-09-15T01:20:59.078Z,42.45
2022-09-15T01:22:25.893Z,42.86
2022-09-15T01:23:41.895Z,43.43
2022-09-15T01:25:09.171Z,44.01
2022-09-15T01:26:53.421Z,44.66
2022-09-15T01:28:17.625Z,45.17
2022-09-15T01:29:43.211Z,45.39
2022-09-15T01:31:06.364Z,45.75
2022-09-15T01:32:54.012Z,46.10
2022-09-15T01:34:24.089Z,46.30
2022-09-15T01:36:21.494Z,46.85
2022-09-15T01:37:31.370Z,46.98
2022-09-15T01:39:04.165Z,47.30
2022-09-15T01:40:11.787Z,47.67
2022-09-15T01:41:30.005Z,47.84
2022-09-15T01:42:36.288Z,48.05
2022-09-15T01:43:53.228Z,48.20
2022-09-15T01:45:16.308Z,48.60
2022-09-15T01:46:22.980Z,48.67
2022-09-15T01:47:29.494Z,48.77
2022-09-15T01:48:35.310Z,49.07
2022-09-15T01:49:56.395Z,49.23
2022-09-15T01:51:05.147Z,49.38
2022-09-15T01:52:10.920Z,49.50
2022-09-15T01:53:22.678Z,49.68
2022-09-15T01:54:31.295Z,49.86
2022-09-15T01:55:43.001Z,50.27
2022-09-15T01:56:50.122Z,50.47
2022-09-15T01:57:56.141Z,50.68
2022-09-15T01:59:05.062Z,50.56
2022-09-15T02:00:13.914Z,50.69
2022-09-15T02:01:53.071Z,51.03
2022-09-15T02:03:01.133Z,51.35
2022-09-15T02:04:37.627Z,51.35
2022-09-15T02:05:45.559Z,51.90
2022-09-15T02:07:03.323Z,52.15
2022-09-15T02:08:48.387Z,52.44
2022-09-15T02:10:02.670Z,52.42
2022-09-15T02:11:16.294Z,52.52
2022-09-15T02:12:26.518Z,52.70
2022-09-15T02:13:49.975Z,52.85
2022-09-15T02:15:41.009Z,53.21
2022-09-15T02:19:10.643Z,53.91
2022-09-15T02:20:45.072Z,53.80
2022-09-15T02:22:40.172Z,54.05
2022-09-15T02:23:51.874Z,54.46
2022-09-15T02:25:14.493Z,54.49
2022-09-15T02:26:25.476Z,55.22
2022-09-15T02:27:33.119Z,55.67
2022-09-15T02:28:39.999Z,56.02
2022-09-15T02:29:47.934Z,56.31
2022-09-15T02:30:54.132Z,56.54
2022-09-15T02:32:03.828Z,56.59
2022-09-15T02:33:16.270Z,56.70
2022-09-15T02:34:26.805Z,57.08
2022-09-15T02:35:35.555Z,57.43
2022-09-15T02:36:42.318Z,57.56
2022-09-15T02:37:48.242Z,57.65
2022-09-15T02:38:58.662Z,57.54
2022-09-15T02:40:07.466Z,57.47
2022-09-15T02:41:15.422Z,57.47
2022-09-15T02:42:34.013Z,57.78
2022-09-15T02:43:47.138Z,58.41
2022-09-15T02:44:59.517Z,58.73
2022-09-15T02:46:08.862Z,59.07
2022-09-15T02:47:17.618Z,59.11
2022-09-15T02:48:26.024Z,59.05
2022-09-15T02:49:34.967Z,59.28
2022-09-15T02:50:46.782Z,59.45
2022-09-15T02:52:00.617Z,59.30
2022-09-15T02:53:08.769Z,59.32
2022-09-15T02:54:16.052Z,59.61
2022-09-15T02:55:30.053Z,59.85
2022-09-15T02:56:40.963Z,59.99
2022-09-15T02:57:51.133Z,60.12
2022-09-15T02:59:01.994Z,60.22
2022-09-15T03:00:13.921Z,60.22
2022-09-15T03:01:20.206Z,60.46
2022-09-15T03:02:26.973Z,60.59
2022-09-15T03:03:34.753Z,60.73
2022-09-15T03:04:41.634Z,60.69
2022-09-15T03:08:00.677Z,61.10
2022-09-15T03:09:09.032Z,61.50
2022-09-15T03:10:17.042Z,61.60
2022-09-15T03:11:25.505Z,61.81
2022-09-15T03:12:32.373Z,62.12
2022-09-15T03:13:40.962Z,62.63
2022-09-15T03:14:49.512Z,62.86
2022-09-15T03:15:55.733Z,63.04
2022-09-15T03:17:04.087Z,63.21
2022-09-15T03:18:10.251Z,62.79
2022-09-15T03:19:18.087Z,63.05
2022-09-15T03:20:27.990Z,63.25
2022-09-15T03:21:34.838Z,62.97
2022-09-15T03:22:40.928Z,63.25
2022-09-15T03:23:47.617Z,63.39
2022-09-15T03:24:53.762Z,63.41
2022-09-15T03:26:02.831Z,63.69
2022-09-15T03:27:08.501Z,64.09
2022-09-15T03:28:14.822Z,64.47
2022-09-15T03:29:21.021Z,64.76
2022-09-15T03:30:28.926Z,64.99
2022-09-15T03:31:35.146Z,65.08
2022-09-15T03:32:42.383Z,65.44
2022-09-15T03:33:49.823Z,66.11
2022-09-15T03:34:58.509Z,66.25
2022-09-15T03:36:07.942Z,66.24
2022-09-15T03:37:15.388Z,66.20
2022-09-15T03:38:21.868Z,66.03
2022-09-15T03:39:29.498Z,66.32
2022-09-15T03:40:39.011Z,66.95
2022-09-15T03:41:48.593Z,66.52
2022-09-15T03:42:56.463Z,66.36
2022-09-15T03:44:02.432Z,66.24
2022-09-15T03:45:08.696Z,66.98
2022-09-15T03:46:15.408Z,67.30
2022-09-15T03:47:21.335Z,67.71
2022-09-15T03:48:32.428Z,68.07
2022-09-15T03:49:39.550Z,68.21
2022-09-15T03:50:46.124Z,68.10
2022-09-15T03:51:52.625Z,68.23
2022-09-15T03:53:01.048Z,68.47
2022-09-15T03:54:07.263Z,68.54
2022-09-15T03:55:14.933Z,68.52
2022-09-15T03:56:25.612Z,68.64
2022-09-15T03:57:31.700Z,68.63
2022-09-15T03:58:42.039Z,68.66
2022-09-15T03:59:50.188Z,68.83
2022-09-15T04:00:58.735Z,69.07
2022-09-15T04:02:09.200Z,69.15
2022-09-15T04:03:19.374Z,69.07
2022-09-15T04:04:32.652Z,69.00
2022-09-15T04:05:39.727Z,68.80
2022-09-15T04:06:45.821Z,69.07
2022-09-15T04:07:52.162Z,69.05
2022-09-15T04:09:00.680Z,68.97
2022-09-15T04:10:07.110Z,69.36
2022-09-15T04:11:13.690Z,69.55
2022-09-15T04:12:20.293Z,69.61
2022-09-15T04:13:28.712Z,69.87
2022-09-15T04:14:36.453Z,70.06
2022-09-15T04:15:44.975Z,69.80
2022-09-15T04:16:52.195Z,69.59
2022-09-15T04:17:59.417Z,69.42
2022-09-15T04:19:06.221Z,69.54
2022-09-15T04:20:15.113Z,69.45
2022-09-15T04:21:24.500Z,69.66
2022-09-15T04:22:33.273Z,70.04
2022-09-15T04:23:39.864Z,69.93
2022-09-15T04:24:45.836Z,70.18
2022-09-15T04:26:03.032Z,70.55
2022-09-15T04:27:11.304Z,70.36
2022-09-15T04:28:17.954Z,70.30
2022-09-15T04:29:24.243Z,70.37
2022-09-15T04:30:30.736Z,70.58
2022-09-15T04:31:37.147Z,70.43
2022-09-15T04:32:43.375Z,70.65
2022-09-15T04:33:54.236Z,70.96
2022-09-15T04:35:01.855Z,70.97
2022-09-15T04:36:14.071Z,70.98
2022-09-15T04:37:20.892Z,70.84
2022-09-15T04:38:28.412Z,71.05
2022-09-15T04:39:34.688Z,70.97
2022-09-15T04:40:43.433Z,70.64
2022-09-15T04:41:49.875Z,70.57
2022-09-15T04:42:56.344Z,70.72
2022-09-15T04:44:02.749Z,70.82
2022-09-15T04:45:08.838Z,70.66
2022-09-15T04:46:16.079Z,70.92
2022-09-15T04:47:22.544Z,71.34
2022-09-15T04:48:28.744Z,71.41
2022-09-15T04:49:36.999Z,71.55
2022-09-15T04:50:45.200Z,71.47
2022-09-15T04:51:53.775Z,71.33
2022-09-15T04:52:59.824Z,71.37
2022-09-15T04:54:08.815Z,71.20
2022-09-15T04:55:14.678Z,71.38
2022-09-15T04:56:24.617Z,71.47
2022-09-15T04:57:31.098Z,71.52
2022-09-15T04:59:00.915Z,72.08
2022-09-15T05:00:11.273Z,72.36
2022-09-15T05:01:22.633Z,72.20
2022-09-15T05:02:30.546Z,72.00
2022-09-15T05:03:38.080Z,71.77
2022-09-15T05:04:44.704Z,71.88
2022-09-15T05:05:50.786Z,71.80
2022-09-15T05:06:57.440Z,71.86
2022-09-15T05:08:05.048Z,72.04
2022-09-15T05:09:13.849Z,72.28
2022-09-15T05:10:21.204Z,72.43
2022-09-15T05:11:27.965Z,72.66
2022-09-15T05:12:37.951Z,72.74
2022-09-15T05:13:44.240Z,72.71
2022-09-15T05:14:52.063Z,72.41
2022-09-15T05:15:58.169Z,72.26
2022-09-15T05:17:04.612Z,72.36
2022-09-15T05:18:12.231Z,72.49
2022-09-15T05:19:18.541Z,72.59
2022-09-15T05:20:26.803Z,72.56
2022-09-15T05:21:33.010Z,72.80
2022-09-15T05:22:41.942Z,72.92
2022-09-15T05:23:51.235Z,73.46
2022-09-15T05:24:57.932Z,73.25
2022-09-15T05:26:05.444Z,73.67
2022-09-15T05:27:12.481Z,73.47
2022-09-15T05:28:18.548Z,73.76
2022-09-15T05:29:24.581Z,73.64
2022-09-15T05:30:41.409Z,73.93
2022-09-15T05:31:52.648Z,74.09
2022-09-15T05:33:00.310Z,74.41
2022-09-15T05:34:07.378Z,74.34
2022-09-15T05:35:13.246Z,74.52
2022-09-15T05:36:20.782Z,75.08
2022-09-15T05:37:28.082Z,74.67
2022-09-15T05:38:35.614Z,74.53
2022-09-15T05:39:41.864Z,74.50
2022-09-15T05:40:47.996Z,74.62
2022-09-15T05:41:54.013Z,74.82
2022-09-15T05:43:01.538Z,75.09
2022-09-15T05:44:07.580Z,75.45
2022-09-15T05:45:13.519Z,75.48
2022-09-15T05:46:22.247Z,75.54
2022-09-15T05:47:30.543Z,75.49
2022-09-15T05:48:37.236Z,75.64
2022-09-15T05:49:43.779Z,75.54
2022-09-15T05:50:51.692Z,75.71
2022-09-15T05:51:57.760Z,75.49
2022-09-15T05:53:08.087Z,75.42
2022-09-15T05:54:14.093Z,75.61
2022-09-15T05:55:21.837Z,75.95
2022-09-15T05:56:27.827Z,76.11
2022-09-15T05:57:34.267Z,76.42
2022-09-15T05:58:44.049Z,76.41
2022-09-15T05:59:50.232Z,76.44
2022-09-15T06:00:56.352Z,76.43
2022-09-15T06:02:02.236Z,76.29
2022-09-15T06:03:08.769Z,76.16
2022-09-15T06:04:14.630Z,76.32
2022-09-15T06:05:20.656Z,76.34
2022-09-15T06:06:27.198Z,76.33
2022-09-15T06:07:33.362Z,76.55
2022-09-15T06:08:48.443Z,76.92
2022-09-15T06:09:56.688Z,77.04
2022-09-15T06:11:21.663Z,77.06
2022-09-15T06:12:29.051Z,77.25
2022-09-15T06:13:35.132Z,77.18
2022-09-15T06:14:44.686Z,77.02
2022-09-15T06:15:51.888Z,76.90
2022-09-15T06:16:58.256Z,76.92
2022-09-15T06:18:04.311Z,76.99
2022-09-15T06:19:10.283Z,77.05
2022-09-15T06:20:19.599Z,77.27
2022-09-15T06:21:25.726Z,77.31
2022-09-15T06:22:34.314Z,77.44
2022-09-15T06:23:41.250Z,77.41
2022-09-15T06:24:47.600Z,77.39
2022-09-15T06:25:54.239Z,77.66
2022-09-15T06:27:02.427Z,77.59
2022-09-15T06:28:08.640Z,77.71
2022-09-15T06:29:14.961Z,77.75
2022-09-15T06:30:26.952Z,77.75
2022-09-15T06:31:34.102Z,77.63
2022-09-15T06:32:44.147Z,77.94
2022-09-15T06:33:54.527Z,78.15
2022-09-15T06:35:01.566Z,78.33
2022-09-15T06:36:11.485Z,78.47
2022-09-15T06:37:25.227Z,78.38
2022-09-15T06:38:34.523Z,78.69
2022-09-15T06:39:40.881Z,78.99
2022-09-15T06:41:04.567Z,78.67
2022-09-15T06:42:13.792Z,78.57
2022-09-15T06:43:24.126Z,78.34
2022-09-15T06:44:30.609Z,78.24
2022-09-15T06:45:36.834Z,78.38
2022-09-15T06:46:44.051Z,78.41
2022-09-15T06:48:13.402Z,78.56
2022-09-15T06:49:23.215Z,78.64
2022-09-15T06:50:31.811Z,78.62
2022-09-15T06:51:37.977Z,78.75
2022-09-15T06:52:44.468Z,79.02
2022-09-15T06:53:51.643Z,79.19
2022-09-15T06:54:58.062Z,79.16
2022-09-15T06:56:11.086Z,78.98
2022-09-15T06:57:18.147Z,79.12
2022-09-15T06:58:25.472Z,78.87
2022-09-15T06:59:32.598Z,78.81
2022-09-15T07:00:45.540Z,78.67
2022-09-15T07:01:55.259Z,78.88
2022-09-15T07:03:01.609Z,79.12
2022-09-15T07:04:10.321Z,79.22
2022-09-15T07:05:17.493Z,79.50
2022-09-15T07:06:23.163Z,79.65
2022-09-15T07:07:29.407Z,79.39
2022-09-15T07:08:35.364Z,79.37
2022-09-15T07:09:45.088Z,79.45
2022-09-15T07:10:58.043Z,79.56
2022-09-15T07:12:04.261Z,79.82
2022-09-15T07:13:11.475Z,79.90
2022-09-15T07:14:17.466Z,80.17
2022-09-15T07:15:28.023Z,80.03
2022-09-15T07:16:34.608Z,80.16
2022-09-15T07:17:40.348Z,80.11
2022-09-15T07:18:49.647Z,80.24
2022-09-15T07:19:55.990Z,80.40
2022-09-15T07:21:02.743Z,80.36
2022-09-15T07:22:08.534Z,80.41
2022-09-15T07:23:16.030Z,80.66
2022-09-15T07:24:22.761Z,80.62
2022-09-15T07:25:28.915Z,80.51
2022-09-15T07:26:34.732Z,80.74
2022-09-15T07:27:40.649Z,80.78
2022-09-15T07:28:50.607Z,80.92
2022-09-15T07:29:56.857Z,80.70
2022-09-15T07:31:06.670Z,80.48
2022-09-15T07:32:13.635Z,80.35
2022-09-15T07:33:19.734Z,80.23
2022-09-15T07:34:26.666Z,80.32
2022-09-15T07:35:34.070Z,80.29
2022-09-15T07:36:43.164Z,80.16
2022-09-15T07:37:49.269Z,80.14
2022-09-15T07:38:56.294Z,79.96
2022-09-15T07:40:02.430Z,79.77
2022-09-15T07:41:19.645Z,80.31
2022-09-15T07:42:26.487Z,80.32
2022-09-15T07:43:32.941Z,80.24
2022-09-15T07:44:42.197Z,80.30
2022-09-15T07:45:49.562Z,80.66
2022-09-15T07:46:57.330Z,80.83
2022-09-15T07:48:03.690Z,80.88
2022-09-15T07:49:10.771Z,80.92
2022-09-15T07:50:16.740Z,81.01
2022-09-15T07:51:24.212Z,81.00
2022-09-15T07:52:31.797Z,80.81
2022-09-15T07:53:37.886Z,81.06
2022-09-15T07:54:45.339Z,81.02
2022-09-15T07:55:56.981Z,81.01
2022-09-15T07:57:02.850Z,81.13
2022-09-15T07:58:08.787Z,81.12
2022-09-15T07:59:14.933Z,81.20
2022-09-15T08:00:21.750Z,81.05
2022-09-15T08:01:28.090Z,81.22
2022-09-15T08:02:35.272Z,81.22
2022-09-15T08:03:43.356Z,81.32
2022-09-15T08:04:49.775Z,81.59
2022-09-15T08:06:04.686Z,81.55
2022-09-15T08:07:10.597Z,81.58
2022-09-15T08:08:16.447Z,81.60
2022-09-15T08:09:24.748Z,81.43
2022-09-15T08:10:31.524Z,81.20
2022-09-15T08:11:37.151Z,81.08
2022-09-15T08:12:45.641Z,81.56
2022-09-15T08:13:52.804Z,82.12
2022-09-15T08:15:00.419Z,82.30
2022-09-15T08:16:10.682Z,82.19
2022-09-15T08:17:16.932Z,82.43
2022-09-15T08:18:24.010Z,82.74
2022-09-15T08:19:34.141Z,82.71
2022-09-15T08:20:43.103Z,82.57
2022-09-15T08:21:48.869Z,82.30
2022-09-15T08:22:54.943Z,82.12
2022-09-15T08:24:01.895Z,82.22
2022-09-15T08:25:11.060Z,82.47
2022-09-15T08:26:17.225Z,82.67
2022-09-15T08:27:23.337Z,82.64
2022-09-15T08:28:29.586Z,82.59
2022-09-15T08:29:35.677Z,82.45
2022-09-15T08:30:41.385Z,82.73
2022-09-15T08:31:47.829Z,83.03
2022-09-15T08:32:54.051Z,83.33
2022-09-15T08:34:04.483Z,83.48
2022-09-15T08:35:10.676Z,83.80
2022-09-15T08:36:16.450Z,83.67
2022-09-15T08:37:23.703Z,83.77
2022-09-15T08:38:31.106Z,83.51
2022-09-15T08:39:37.207Z,83.44
2022-09-15T08:40:45.395Z,83.31
2022-09-15T08:41:52.503Z,83.45
2022-09-15T08:43:00.398Z,83.75
2022-09-15T08:44:37.313Z,84.05
2022-09-15T08:45:56.223Z,83.97
2022-09-15T08:47:12.821Z,84.04
2022-09-15T08:48:22.563Z,84.21
2022-09-15T08:49:54.903Z,84.19
2022-09-15T08:51:06.424Z,84.47
2022-09-15T08:52:22.244Z,84.59
2022-09-15T08:53:42.234Z,84.71
2022-09-15T08:54:48.562Z,84.82
2022-09-15T08:55:58.337Z,85.14
2022-09-15T08:57:03.979Z,85.41
2022-09-15T08:58:28.463Z,85.97
2022-09-15T08:59:37.408Z,86.62
2022-09-15T09:00:43.365Z,86.75
2022-09-15T09:02:19.195Z,86.54
2022-09-15T09:04:02.628Z,86.50
2022-09-15T09:05:30.427Z,86.67
2022-09-15T09:07:17.534Z,87.08
2022-09-15T09:08:32.125Z,87.40
2022-09-15T09:10:14.793Z,87.07
2022-09-15T09:11:41.844Z,86.74
2022-09-15T09:13:09.801Z,86.90
2022-09-15T09:14:19.326Z,87.25
2022-09-15T09:15:40.312Z,87.64
2022-09-15T09:17:22.637Z,87.80
2022-09-15T09:18:47.720Z,87.70
2022-09-15T09:20:05.523Z,87.59
2022-09-15T09:21:14.605Z,87.61
2022-09-15T09:22:24.233Z,87.73
2022-09-15T09:23:34.669Z,87.69
2022-09-15T09:24:40.552Z,87.87
2022-09-15T09:25:46.955Z,88.14
2022-09-15T09:26:54.951Z,88.17
2022-09-15T09:28:00.956Z,88.03
2022-09-15T09:29:32.607Z,87.89
2022-09-15T09:30:38.626Z,87.57
2022-09-15T09:31:47.871Z,87.22
2022-09-15T09:33:31.455Z,87.43
2022-09-15T09:34:43.169Z,87.67
2022-09-15T09:35:52.802Z,88.24
2022-09-15T09:37:02.938Z,88.31
2022-09-15T09:38:12.322Z,88.31
2022-09-15T09:39:18.513Z,88.36
2022-09-15T09:40:25.531Z,88.62
2022-09-15T09:41:37.538Z,88.94
2022-09-15T09:42:43.635Z,89.15
2022-09-15T09:43:50.254Z,88.98
2022-09-15T09:44:56.246Z,88.60
2022-09-15T09:46:02.764Z,88.33
2022-09-15T09:47:08.424Z,88.20
2022-09-15T09:48:24.793Z,88.17
2022-09-15T09:49:34.949Z,88.12
2022-09-15T09:50:45.996Z,87.89
2022-09-15T09:52:02.868Z,87.60
2022-09-15T09:53:33.699Z,87.41
2022-09-15T09:54:40.022Z,87.18
2022-09-15T09:55:47.199Z,87.09
2022-09-15T09:56:54.376Z,87.11
2022-09-15T09:58:16.155Z,86.82
2022-09-15T09:59:47.714Z,86.40
2022-09-15T10:00:56.817Z,86.10
2022-09-15T10:02:27.473Z,85.74
2022-09-15T10:03:36.090Z,85.44
2022-09-15T10:04:55.493Z,85.36
2022-09-15T10:06:09.056Z,85.33
2022-09-15T10:07:16.771Z,85.20
2022-09-15T10:08:24.308Z,85.07
2022-09-15T10:09:33.422Z,85.07
2022-09-15T10:10:40.316Z,85.04
2022-09-15T10:12:00.143Z,84.84
2022-09-15T10:13:06.354Z,84.85
2022-09-15T10:14:24.083Z,84.61
2022-09-15T10:15:34.734Z,84.25
2022-09-15T10:16:42.277Z,84.07
2022-09-15T10:17:51.250Z,83.96
2022-09-15T10:18:57.595Z,83.89
2022-09-15T10:20:04.248Z,83.88
2022-09-15T10:21:10.731Z,83.80
2022-09-15T10:22:27.575Z,83.90
2022-09-15T10:23:37.416Z,83.75
2022-09-15T10:24:46.030Z,83.66
2022-09-15T10:25:59.484Z,83.59
2022-09-15T10:27:10.342Z,83.45
2022-09-15T10:28:20.547Z,83.24
2022-09-15T10:29:26.562Z,83.02
2022-09-15T10:30:32.680Z,82.72
2022-09-15T10:31:40.299Z,82.85
2022-09-15T10:32:46.638Z,82.73
2022-09-15T10:33:53.522Z,82.60
2022-09-15T10:35:14.961Z,82.60
2022-09-15T10:36:29.383Z,82.71
2022-09-15T10:37:45.742Z,82.66
2022-09-15T10:39:02.706Z,82.68
2022-09-15T10:40:30.355Z,82.69
2022-09-15T10:41:41.916Z,82.66
2022-09-15T10:42:50.815Z,82.47
2022-09-15T10:44:18.724Z,82.36
2022-09-15T10:45:41.537Z,82.13
2022-09-15T10:46:56.406Z,82.06
2022-09-15T10:48:35.559Z,82.07
2022-09-15T10:50:27.270Z,82.15
2022-09-15T10:51:51.463Z,82.13
2022-09-15T10:53:22.232Z,82.22
2022-09-15T10:55:08.548Z,82.37
2022-09-15T10:56:38.669Z,82.47
2022-09-15T10:58:21.889Z,82.48
2022-09-15T10:59:44.489Z,82.49
2022-09-15T11:01:21.030Z,82.50
2022-09-15T11:02:45.838Z,82.64
2022-09-15T11:04:23.365Z,82.78
2022-09-15T11:05:36.221Z,82.76
2022-09-15T11:07:03.815Z,82.54
2022-09-15T11:08:58.206Z,82.66
2022-09-15T11:10:31.803Z,82.75
2022-09-15T11:11:58.224Z,82.89
2022-09-15T11:13:30.219Z,82.91
2022-09-15T11:15:10.667Z,82.71
2022-09-15T11:17:01.245Z,82.88
2022-09-15T11:18:32.379Z,83.13
2022-09-15T11:20:04.211Z,83.31
2022-09-15T11:21:10.784Z,83.58
2022-09-15T11:22:23.778Z,83.92
2022-09-15T11:23:44.637Z,84.12
2022-09-15T11:25:01.504Z,84.05
2022-09-15T11:26:14.149Z,84.16
2022-09-15T11:27:45.639Z,84.35
2022-09-15T11:28:58.272Z,84.48
2022-09-15T11:30:18.121Z,84.46
2022-09-15T11:31:28.781Z,84.55
2022-09-15T11:33:15.781Z,84.61
2022-09-15T11:34:43.627Z,84.66
2022-09-15T11:36:03.377Z,84.51
2022-09-15T11:37:15.697Z,84.40
2022-09-15T11:38:28.728Z,84.39
2022-09-15T11:39:46.395Z,84.54
2022-09-15T11:41:07.076Z,84.56
2022-09-15T11:42:41.131Z,84.74
2022-09-15T11:44:16.696Z,84.73
2022-09-15T11:45:37.469Z,84.93
2022-09-15T11:47:20.865Z,84.88
2022-09-15T11:48:32.878Z,84.77
2022-09-15T11:50:03.099Z,84.97
2022-09-15T11:51:09.238Z,84.90
2022-09-15T11:52:30.499Z,84.76
2022-09-15T11:53:55.542Z,84.70
2022-09-15T11:55:16.793Z,84.53
2022-09-15T11:56:37.947Z,84.55
2022-09-15T11:57:47.408Z,84.42
2022-09-15T11:59:19.441Z,84.19
2022-09-15T12:00:25.799Z,83.91
2022-09-15T12:02:02.949Z,83.77
2022-09-15T12:03:46.242Z,83.57
2022-09-15T12:05:15.195Z,83.39
2022-09-15T12:07:02.510Z,83.35
2022-09-15T12:08:38.513Z,83.27
2022-09-15T12:09:44.807Z,83.19
2022-09-15T12:10:53.040Z,83.00
2022-09-15T12:12:02.433Z,82.73
2022-09-15T12:13:08.267Z,82.48
2022-09-15T12:14:27.378Z,82.26
2022-09-15T12:15:33.233Z,82.13
2022-09-15T12:16:39.598Z,81.90
2022-09-15T12:17:47.709Z,81.88
2022-09-15T12:18:57.979Z,81.78
2022-09-15T12:20:07.787Z,81.90
2022-09-15T12:21:16.240Z,81.90
2022-09-15T12:22:44.293Z,81.89
2022-09-15T12:24:08.869Z,81.89
2022-09-15T12:25:23.614Z,81.85
2022-09-15T12:26:30.627Z,81.80
2022-09-15T12:27:36.776Z,81.66
2022-09-15T12:29:04.187Z,81.63
2022-09-15T12:30:31.903Z,81.47
2022-09-15T12:31:40.796Z,81.34
2022-09-15T12:32:46.797Z,81.49
2022-09-15T12:34:23.132Z,81.67
2022-09-15T12:35:33.853Z,81.69
2022-09-15T12:36:44.078Z,81.78
2022-09-15T12:37:54.502Z,81.79
2022-09-15T12:39:01.132Z,81.73
2022-09-15T12:40:13.000Z,81.56
2022-09-15T12:41:19.592Z,81.46
2022-09-15T12:42:31.872Z,81.27
2022-09-15T12:43:38.103Z,81.29
2022-09-15T12:44:51.765Z,81.43
2022-09-15T12:46:01.934Z,81.42
2022-09-15T12:47:08.863Z,81.57
2022-09-15T12:48:23.594Z,81.68
2022-09-15T12:49:37.199Z,81.61
2022-09-15T12:50:44.627Z,81.45
2022-09-15T12:51:51.008Z,81.33
2022-09-15T12:52:59.356Z,81.18
2022-09-15T12:54:08.470Z,80.84
2022-09-15T12:55:28.260Z,80.66
2022-09-15T12:56:35.063Z,80.65
2022-09-15T12:57:42.656Z,80.70
2022-09-15T12:58:50.339Z,80.87
2022-09-15T13:00:34.085Z,80.85
2022-09-15T13:01:48.059Z,80.91
2022-09-15T13:02:53.878Z,80.89
2022-09-15T13:04:00.516Z,80.86
2022-09-15T13:05:06.432Z,80.74
2022-09-15T13:06:30.185Z,80.58
2022-09-15T13:07:37.286Z,80.37
2022-09-15T13:09:05.797Z,80.38
2022-09-15T13:10:16.091Z,80.58
2022-09-15T13:12:55.942Z,80.64
2022-09-15T13:14:02.449Z,80.74
2022-09-15T13:15:09.223Z,80.58
2022-09-15T13:16:31.149Z,80.50
2022-09-15T13:17:37.894Z,80.32
2022-09-15T13:18:45.257Z,80.20
2022-09-15T13:19:58.542Z,80.21
2022-09-15T13:21:05.930Z,80.10
2022-09-15T13:22:31.007Z,80.27
2022-09-15T13:23:41.757Z,80.31
2022-09-15T13:25:14.549Z,80.43
2022-09-15T13:26:25.256Z,80.51
2022-09-15T13:27:54.050Z,80.30
2022-09-15T13:29:01.986Z,80.12
2022-09-15T13:30:25.866Z,79.93
2022-09-15T13:32:06.054Z,80.07
2022-09-15T13:35:20.850Z,80.50
2022-09-15T13:38:55.617Z,80.46
2022-09-15T13:40:01.897Z,80.26
2022-09-15T13:41:28.858Z,80.19
2022-09-15T13:42:58.552Z,79.95
2022-09-15T13:44:42.053Z,79.86
2022-09-15T13:46:18.111Z,79.94
2022-09-15T13:48:01.764Z,80.09
2022-09-15T13:49:33.926Z,80.12
2022-09-15T13:50:56.721Z,80.21
2022-09-15T13:52:23.379Z,80.10
2022-09-15T13:54:04.974Z,79.94
2022-09-15T13:55:28.309Z,79.73
2022-09-15T13:56:46.057Z,79.56
2022-09-15T13:59:30.406Z,79.49
2022-09-15T14:00:46.804Z,79.59
2022-09-15T14:01:56.028Z,79.79
2022-09-15T14:03:04.599Z,79.70
2022-09-15T14:04:30.951Z,79.46
2022-09-15T14:05:37.015Z,79.12
2022-09-15T14:06:44.637Z,78.75
2022-09-15T14:08:05.384Z,78.46
2022-09-15T14:09:28.248Z,78.33
2022-09-15T14:10:37.167Z,78.28
2022-09-15T14:11:44.766Z,78.43
2022-09-15T14:12:53.862Z,78.28
2022-09-15T14:14:04.543Z,78.22
2022-09-15T14:15:10.891Z,78.06
2022-09-15T14:16:30.000Z,77.71
2022-09-15T14:17:44.921Z,77.40
2022-09-15T14:18:52.491Z,76.93
2022-09-15T14:19:59.514Z,76.69
2022-09-15T14:21:07.170Z,76.46
2022-09-15T14:22:31.484Z,76.20
2022-09-15T14:23:48.901Z,75.98
2022-09-15T14:24:55.155Z,76.12
2022-09-15T14:26:01.049Z,76.21
2022-09-15T14:27:09.893Z,76.23
2022-09-15T14:28:22.497Z,76.01
2022-09-15T14:29:28.852Z,75.50
2022-09-15T14:30:38.504Z,75.24
2022-09-15T14:31:44.858Z,74.91
2022-09-15T14:32:55.369Z,74.62
2022-09-15T14:34:07.014Z,74.51
2022-09-15T14:35:19.770Z,74.51
2022-09-15T14:36:34.201Z,74.60
2022-09-15T14:37:39.974Z,74.35
2022-09-15T14:38:45.806Z,73.89
2022-09-15T14:39:56.985Z,73.44
2022-09-15T14:41:04.010Z,73.04
2022-09-15T14:42:23.081Z,72.96
2022-09-15T14:43:42.115Z,72.67
2022-09-15T14:46:22.393Z,71.82
2022-09-15T14:47:28.803Z,71.46
2022-09-15T14:48:35.253Z,71.05
2022-09-15T14:49:40.976Z,70.88
2022-09-15T14:50:55.845Z,70.63
2022-09-15T14:52:02.131Z,70.41
2022-09-15T14:53:16.920Z,70.62
2022-09-15T14:54:35.567Z,70.80
2022-09-15T14:56:08.203Z,70.64
2022-09-15T14:57:14.838Z,70.36
2022-09-15T14:58:22.110Z,69.82
2022-09-15T14:59:54.077Z,69.56
2022-09-15T15:01:24.431Z,69.57
2022-09-15T15:03:04.734Z,69.00
2022-09-15T15:04:25.142Z,69.12
2022-09-15T15:05:37.034Z,68.90
2022-09-15T15:06:52.989Z,68.32
2022-09-15T15:07:59.905Z,68.31
2022-09-15T15:09:13.886Z,68.06
2022-09-15T15:10:35.603Z,67.81
2022-09-15T15:11:44.069Z,67.64
2022-09-15T15:12:55.232Z,67.30
2022-09-15T15:14:01.341Z,66.95
2022-09-15T15:15:08.118Z,65.63
2022-09-15T15:16:31.411Z,64.52
2022-09-15T15:17:43.655Z,63.44
2022-09-15T15:18:51.959Z,62.73
2022-09-15T15:20:15.109Z,62.21
2022-09-15T15:21:32.610Z,62.29
2022-09-15T15:22:39.522Z,62.64
2022-09-15T15:23:48.855Z,62.16
2022-09-15T15:24:54.356Z,62.20
2022-09-15T15:26:47.908Z,62.50
2022-09-15T15:27:58.447Z,62.83
2022-09-15T15:29:04.782Z,62.90
2022-09-15T15:30:32.187Z,62.81
2022-09-15T15:31:40.744Z,63.03
2022-09-15T15:32:46.870Z,63.09
2022-09-15T15:33:57.468Z,63.25
2022-09-15T15:35:03.924Z,63.04
2022-09-15T15:36:10.119Z,62.49
2022-09-15T15:37:26.135Z,61.34
2022-09-15T15:38:46.349Z,61.14
2022-09-15T15:39:56.200Z,61.86
2022-09-15T15:41:03.919Z,61.99
2022-09-15T15:42:16.232Z,61.22
2022-09-15T15:43:26.028Z,61.23
2022-09-15T15:44:32.330Z,60.96
2022-09-15T15:45:38.739Z,60.79
2022-09-15T15:46:52.849Z,59.62
2022-09-15T15:47:58.861Z,57.24
2022-09-15T15:49:10.604Z,56.58
2022-09-15T15:50:22.459Z,56.35
2022-09-15T15:51:32.218Z,56.08
2022-09-15T15:52:39.061Z,55.82
2022-09-15T15:53:45.449Z,55.36
2022-09-15T15:54:52.534Z,54.63
2022-09-15T15:56:01.974Z,55.02
2022-09-15T15:57:27.239Z,55.63
2022-09-15T15:58:33.291Z,54.18
2022-09-15T15:59:42.086Z,53.50
2022-09-15T16:00:52.299Z,52.38